sensor_id;sensor_type;location;lat;lon;timestamp;temperature;humidity
11003;DHT22;5554;55.796;13.090;2022-10-16T00:01:03;13.60;99.90
11003;DHT22;5554;55.796;13.090;2022-10-16T00:03:30;13.50;99.90
11003;DHT22;5554;55.796;13.090;2022-10-16T00:05:58;13.40;99.90
11003;DHT22;5554;55.796;13.090;2022-10-16T00:08:25;13.40;99.90
11003;DHT22;5554;55.796;13.090;2022-10-16T00:10:51;13.40;99.90
11003;DHT22;5554;55.796;13.090;2022-10-16T00:13:18;13.30;99.90
11003;DHT22;5554;55.796;13.090;2022-10-16T00:15:47;13.20;99.90
11003;DHT22;5554;55.796;13.090;2022-10-16T00:18:14;13.10;99.90
11003;DHT22;5554;55.796;13.090;2022-10-16T00:20:40;13.10;99.90
11003;DHT22;5554;55.796;13.090;2022-10-16T00:23:07;13.20;99.90
11003;DHT22;5554;55.796;13.090;2022-10-16T00:25:35;13.10;99.90
11003;DHT22;5554;55.796;13.090;2022-10-16T00:28:02;13.00;99.90
11003;DHT22;5554;55.796;13.090;2022-10-16T00:30:29;12.90;99.90
11003;DHT22;5554;55.796;13.090;2022-10-16T00:32:57;12.80;99.90
11003;DHT22;5554;55.796;13.090;2022-10-16T00:35:23;12.70;99.90
11003;DHT22;5554;55.796;13.090;2022-10-16T00:37:50;12.70;99.90
11003;DHT22;5554;55.796;13.090;2022-10-16T00:40:17;12.60;99.90
11003;DHT22;5554;55.796;13.090;2022-10-16T00:42:43;12.60;99.90
11003;DHT22;5554;55.796;13.090;2022-10-16T00:45:10;12.50;99.90
11003;DHT22;5554;55.796;13.090;2022-10-16T00:47:38;12.50;99.90
11003;DHT22;5554;55.796;13.090;2022-10-16T00:50:08;12.50;99.90
11003;DHT22;5554;55.796;13.090;2022-10-16T00:52:35;12.40;99.90
11003;DHT22;5554;55.796;13.090;2022-10-16T00:55:03;12.50;99.90
11003;DHT22;5554;55.796;13.090;2022-10-16T00:57:30;12.50;99.90
11003;DHT22;5554;55.796;13.090;2022-10-16T00:59:57;12.40;99.90
11003;DHT22;5554;55.796;13.090;2022-10-16T01:02:24;12.30;99.90
11003;DHT22;5554;55.796;13.090;2022-10-16T01:04:51;12.40;99.90
11003;DHT22;5554;55.796;13.090;2022-10-16T01:07:23;12.40;99.90
11003;DHT22;5554;55.796;13.090;2022-10-16T01:09:54;12.30;99.90
11003;DHT22;5554;55.796;13.090;2022-10-16T01:12:27;12.20;99.90
11003;DHT22;5554;55.796;13.090;2022-10-16T01:14:56;12.20;99.90
11003;DHT22;5554;55.796;13.090;2022-10-16T01:17:26;12.30;99.90
11003;DHT22;5554;55.796;13.090;2022-10-16T01:20:00;12.30;99.90
11003;DHT22;5554;55.796;13.090;2022-10-16T01:22:33;12.30;99.90
11003;DHT22;5554;55.796;13.090;2022-10-16T01:25:01;12.30;99.90
11003;DHT22;5554;55.796;13.090;2022-10-16T01:27:33;12.30;99.90
11003;DHT22;5554;55.796;13.090;2022-10-16T01:30:02;12.30;99.90
11003;DHT22;5554;55.796;13.090;2022-10-16T01:32:31;12.20;99.90
11003;DHT22;5554;55.796;13.090;2022-10-16T01:35:01;12.30;99.90
11003;DHT22;5554;55.796;13.090;2022-10-16T01:37:32;12.20;99.90
11003;DHT22;5554;55.796;13.090;2022-10-16T01:40:00;12.20;99.90
11003;DHT22;5554;55.796;13.090;2022-10-16T01:42:29;12.20;99.90
11003;DHT22;5554;55.796;13.090;2022-10-16T01:44:58;12.10;99.90
11003;DHT22;5554;55.796;13.090;2022-10-16T01:47:25;12.10;99.90
11003;DHT22;5554;55.796;13.090;2022-10-16T01:49:53;12.10;99.90
11003;DHT22;5554;55.796;13.090;2022-10-16T01:52:22;12.10;99.90
11003;DHT22;5554;55.796;13.090;2022-10-16T01:54:50;12.00;99.90
11003;DHT22;5554;55.796;13.090;2022-10-16T01:57:18;12.00;99.90
11003;DHT22;5554;55.796;13.090;2022-10-16T01:59:48;12.10;99.90
11003;DHT22;5554;55.796;13.090;2022-10-16T02:02:17;12.00;99.90
11003;DHT22;5554;55.796;13.090;2022-10-16T02:04:46;12.00;99.90
11003;DHT22;5554;55.796;13.090;2022-10-16T02:07:14;12.10;99.90
11003;DHT22;5554;55.796;13.090;2022-10-16T02:09:40;12.00;99.90
11003;DHT22;5554;55.796;13.090;2022-10-16T02:12:09;12.10;99.90
11003;DHT22;5554;55.796;13.090;2022-10-16T02:14:37;12.20;99.90
11003;DHT22;5554;55.796;13.090;2022-10-16T02:17:09;12.20;99.90
11003;DHT22;5554;55.796;13.090;2022-10-16T02:19:37;12.30;99.90
11003;DHT22;5554;55.796;13.090;2022-10-16T02:22:04;12.30;99.90
11003;DHT22;5554;55.796;13.090;2022-10-16T02:24:33;12.20;99.90
11003;DHT22;5554;55.796;13.090;2022-10-16T02:27:01;12.20;99.90
11003;DHT22;5554;55.796;13.090;2022-10-16T02:29:29;12.20;99.90
11003;DHT22;5554;55.796;13.090;2022-10-16T02:31:57;12.30;99.90
11003;DHT22;5554;55.796;13.090;2022-10-16T02:34:25;12.20;99.90
11003;DHT22;5554;55.796;13.090;2022-10-16T02:36:54;12.20;99.90
11003;DHT22;5554;55.796;13.090;2022-10-16T02:39:21;12.30;99.90
11003;DHT22;5554;55.796;13.090;2022-10-16T02:41:47;12.30;99.90
11003;DHT22;5554;55.796;13.090;2022-10-16T02:44:14;12.30;99.90
11003;DHT22;5554;55.796;13.090;2022-10-16T02:46:41;12.30;99.90
11003;DHT22;5554;55.796;13.090;2022-10-16T02:49:07;12.20;99.90
11003;DHT22;5554;55.796;13.090;2022-10-16T02:51:34;12.30;99.90
11003;DHT22;5554;55.796;13.090;2022-10-16T02:54:02;12.20;99.90
11003;DHT22;5554;55.796;13.090;2022-10-16T02:56:29;12.20;99.90
11003;DHT22;5554;55.796;13.090;2022-10-16T02:58:56;12.10;99.90
11003;DHT22;5554;55.796;13.090;2022-10-16T03:01:23;12.10;99.90
11003;DHT22;5554;55.796;13.090;2022-10-16T03:03:50;12.10;99.90
11003;DHT22;5554;55.796;13.090;2022-10-16T03:06:16;12.00;99.90
11003;DHT22;5554;55.796;13.090;2022-10-16T03:08:43;12.00;99.90
11003;DHT22;5554;55.796;13.090;2022-10-16T03:11:11;12.00;99.90
11003;DHT22;5554;55.796;13.090;2022-10-16T03:13:38;12.00;99.90
11003;DHT22;5554;55.796;13.090;2022-10-16T03:16:04;12.10;99.90
11003;DHT22;5554;55.796;13.090;2022-10-16T03:18:31;12.00;99.90
11003;DHT22;5554;55.796;13.090;2022-10-16T03:20:58;12.00;99.90
11003;DHT22;5554;55.796;13.090;2022-10-16T03:23:24;12.00;99.90
11003;DHT22;5554;55.796;13.090;2022-10-16T03:25:51;11.90;99.90
11003;DHT22;5554;55.796;13.090;2022-10-16T03:28:19;12.00;99.90
11003;DHT22;5554;55.796;13.090;2022-10-16T03:30:45;12.00;99.90
11003;DHT22;5554;55.796;13.090;2022-10-16T03:33:12;12.00;99.90
11003;DHT22;5554;55.796;13.090;2022-10-16T03:35:39;12.00;99.90
11003;DHT22;5554;55.796;13.090;2022-10-16T03:38:05;11.90;99.90
11003;DHT22;5554;55.796;13.090;2022-10-16T03:40:32;12.00;99.90
11003;DHT22;5554;55.796;13.090;2022-10-16T03:42:59;12.00;99.90
11003;DHT22;5554;55.796;13.090;2022-10-16T03:45:27;12.00;99.90
11003;DHT22;5554;55.796;13.090;2022-10-16T03:47:54;11.90;99.90
11003;DHT22;5554;55.796;13.090;2022-10-16T03:50:21;11.80;99.90
11003;DHT22;5554;55.796;13.090;2022-10-16T03:52:47;11.80;99.90
11003;DHT22;5554;55.796;13.090;2022-10-16T03:55:14;11.80;99.90
11003;DHT22;5554;55.796;13.090;2022-10-16T03:57:41;11.70;99.90
11003;DHT22;5554;55.796;13.090;2022-10-16T04:00:08;11.80;99.90
11003;DHT22;5554;55.796;13.090;2022-10-16T04:02:36;11.80;99.90
11003;DHT22;5554;55.796;13.090;2022-10-16T04:05:03;11.70;99.90
11003;DHT22;5554;55.796;13.090;2022-10-16T04:07:30;11.70;99.90
11003;DHT22;5554;55.796;13.090;2022-10-16T04:09:56;11.80;99.90
11003;DHT22;5554;55.796;13.090;2022-10-16T04:12:24;11.70;99.90
11003;DHT22;5554;55.796;13.090;2022-10-16T04:14:50;11.70;99.90
11003;DHT22;5554;55.796;13.090;2022-10-16T04:17:17;11.70;99.90
11003;DHT22;5554;55.796;13.090;2022-10-16T04:19:45;11.60;99.90
11003;DHT22;5554;55.796;13.090;2022-10-16T04:22:12;11.70;99.90
11003;DHT22;5554;55.796;13.090;2022-10-16T04:24:38;11.60;99.90
11003;DHT22;5554;55.796;13.090;2022-10-16T04:27:05;11.70;99.90
11003;DHT22;5554;55.796;13.090;2022-10-16T04:29:32;11.90;99.90
11003;DHT22;5554;55.796;13.090;2022-10-16T04:31:58;11.90;99.90
11003;DHT22;5554;55.796;13.090;2022-10-16T04:34:25;12.00;99.90
11003;DHT22;5554;55.796;13.090;2022-10-16T04:36:53;12.00;99.90
11003;DHT22;5554;55.796;13.090;2022-10-16T04:39:20;12.00;99.90
11003;DHT22;5554;55.796;13.090;2022-10-16T04:41:46;12.00;99.90
11003;DHT22;5554;55.796;13.090;2022-10-16T04:44:13;12.10;99.90
11003;DHT22;5554;55.796;13.090;2022-10-16T04:46:39;12.10;99.90
11003;DHT22;5554;55.796;13.090;2022-10-16T04:49:06;12.20;99.90
11003;DHT22;5554;55.796;13.090;2022-10-16T04:51:33;12.20;99.90
11003;DHT22;5554;55.796;13.090;2022-10-16T04:54:01;12.30;99.90
11003;DHT22;5554;55.796;13.090;2022-10-16T04:56:27;12.30;99.90
11003;DHT22;5554;55.796;13.090;2022-10-16T04:58:54;12.40;99.90
11003;DHT22;5554;55.796;13.090;2022-10-16T05:01:21;12.40;99.90
11003;DHT22;5554;55.796;13.090;2022-10-16T05:03:47;12.50;99.90
11003;DHT22;5554;55.796;13.090;2022-10-16T05:06:14;12.40;99.90
11003;DHT22;5554;55.796;13.090;2022-10-16T05:08:40;12.50;99.90
11003;DHT22;5554;55.796;13.090;2022-10-16T05:11:08;12.40;99.90
11003;DHT22;5554;55.796;13.090;2022-10-16T05:13:35;12.40;99.90
11003;DHT22;5554;55.796;13.090;2022-10-16T05:16:02;12.30;99.90
11003;DHT22;5554;55.796;13.090;2022-10-16T05:18:28;12.30;99.90
11003;DHT22;5554;55.796;13.090;2022-10-16T05:20:55;12.30;99.90
11003;DHT22;5554;55.796;13.090;2022-10-16T05:23:22;12.30;99.90
11003;DHT22;5554;55.796;13.090;2022-10-16T05:25:52;12.30;99.90
11003;DHT22;5554;55.796;13.090;2022-10-16T05:28:20;12.30;99.90
11003;DHT22;5554;55.796;13.090;2022-10-16T05:30:47;12.30;99.90
11003;DHT22;5554;55.796;13.090;2022-10-16T05:33:13;12.30;99.90
11003;DHT22;5554;55.796;13.090;2022-10-16T05:35:40;12.40;99.90
11003;DHT22;5554;55.796;13.090;2022-10-16T05:38:06;12.40;99.90
11003;DHT22;5554;55.796;13.090;2022-10-16T05:40:33;12.40;99.90
11003;DHT22;5554;55.796;13.090;2022-10-16T05:43:00;12.30;99.90
11003;DHT22;5554;55.796;13.090;2022-10-16T05:45:28;12.30;99.90
11003;DHT22;5554;55.796;13.090;2022-10-16T05:47:55;12.40;99.90
11003;DHT22;5554;55.796;13.090;2022-10-16T05:50:21;12.30;99.90
11003;DHT22;5554;55.796;13.090;2022-10-16T05:52:48;12.30;99.90
11003;DHT22;5554;55.796;13.090;2022-10-16T05:55:15;12.30;99.90
11003;DHT22;5554;55.796;13.090;2022-10-16T05:57:41;12.30;99.90
11003;DHT22;5554;55.796;13.090;2022-10-16T06:00:08;12.20;99.90
11003;DHT22;5554;55.796;13.090;2022-10-16T06:02:37;12.20;99.90
11003;DHT22;5554;55.796;13.090;2022-10-16T06:05:04;12.20;99.90
11003;DHT22;5554;55.796;13.090;2022-10-16T06:07:33;12.20;99.90
11003;DHT22;5554;55.796;13.090;2022-10-16T06:10:00;12.30;99.90
11003;DHT22;5554;55.796;13.090;2022-10-16T06:12:26;12.20;99.90
11003;DHT22;5554;55.796;13.090;2022-10-16T06:14:53;12.30;99.90
11003;DHT22;5554;55.796;13.090;2022-10-16T06:17:19;12.30;99.90
11003;DHT22;5554;55.796;13.090;2022-10-16T06:19:47;12.30;99.90
11003;DHT22;5554;55.796;13.090;2022-10-16T06:22:14;12.40;99.90
11003;DHT22;5554;55.796;13.090;2022-10-16T06:24:41;12.30;99.90
11003;DHT22;5554;55.796;13.090;2022-10-16T06:27:08;12.40;99.90
11003;DHT22;5554;55.796;13.090;2022-10-16T06:29:34;12.40;99.90
11003;DHT22;5554;55.796;13.090;2022-10-16T06:32:01;12.40;99.90
11003;DHT22;5554;55.796;13.090;2022-10-16T06:34:28;12.40;99.90
11003;DHT22;5554;55.796;13.090;2022-10-16T06:36:56;12.40;99.90
11003;DHT22;5554;55.796;13.090;2022-10-16T06:39:22;12.40;99.90
11003;DHT22;5554;55.796;13.090;2022-10-16T06:41:49;12.40;99.90
11003;DHT22;5554;55.796;13.090;2022-10-16T06:44:16;12.50;99.90
11003;DHT22;5554;55.796;13.090;2022-10-16T06:46:42;12.50;99.90
11003;DHT22;5554;55.796;13.090;2022-10-16T06:49:09;12.50;99.90
11003;DHT22;5554;55.796;13.090;2022-10-16T06:51:36;12.50;99.90
11003;DHT22;5554;55.796;13.090;2022-10-16T06:54:07;12.50;99.90
11003;DHT22;5554;55.796;13.090;2022-10-16T06:56:34;12.60;99.90
11003;DHT22;5554;55.796;13.090;2022-10-16T06:59:01;12.60;99.90
11003;DHT22;5554;55.796;13.090;2022-10-16T07:01:28;12.60;99.90
11003;DHT22;5554;55.796;13.090;2022-10-16T07:03:54;12.60;99.90
11003;DHT22;5554;55.796;13.090;2022-10-16T07:06:23;12.60;99.90
11003;DHT22;5554;55.796;13.090;2022-10-16T07:08:50;12.50;99.90
11003;DHT22;5554;55.796;13.090;2022-10-16T07:11:18;12.60;99.90
11003;DHT22;5554;55.796;13.090;2022-10-16T07:13:45;12.60;99.90
11003;DHT22;5554;55.796;13.090;2022-10-16T07:16:13;12.60;99.90
11003;DHT22;5554;55.796;13.090;2022-10-16T07:18:40;12.60;99.90
11003;DHT22;5554;55.796;13.090;2022-10-16T07:21:09;12.60;99.90
11003;DHT22;5554;55.796;13.090;2022-10-16T07:23:36;12.70;99.90
11003;DHT22;5554;55.796;13.090;2022-10-16T07:26:03;12.80;99.90
11003;DHT22;5554;55.796;13.090;2022-10-16T07:28:32;12.80;99.90
11003;DHT22;5554;55.796;13.090;2022-10-16T07:31:00;12.90;99.90
11003;DHT22;5554;55.796;13.090;2022-10-16T07:33:27;12.90;99.90
11003;DHT22;5554;55.796;13.090;2022-10-16T07:35:53;12.90;99.90
11003;DHT22;5554;55.796;13.090;2022-10-16T07:38:21;13.00;99.90
11003;DHT22;5554;55.796;13.090;2022-10-16T07:40:48;12.90;99.90
11003;DHT22;5554;55.796;13.090;2022-10-16T07:43:14;13.00;99.90
11003;DHT22;5554;55.796;13.090;2022-10-16T07:45:48;13.10;99.90
11003;DHT22;5554;55.796;13.090;2022-10-16T07:48:15;13.10;99.90
11003;DHT22;5554;55.796;13.090;2022-10-16T07:50:42;13.20;99.90
11003;DHT22;5554;55.796;13.090;2022-10-16T07:53:09;13.20;99.90
11003;DHT22;5554;55.796;13.090;2022-10-16T07:55:36;13.30;99.90
11003;DHT22;5554;55.796;13.090;2022-10-16T07:58:02;13.20;99.90
11003;DHT22;5554;55.796;13.090;2022-10-16T08:00:29;13.30;99.90
11003;DHT22;5554;55.796;13.090;2022-10-16T08:02:57;13.30;99.90
11003;DHT22;5554;55.796;13.090;2022-10-16T08:05:25;13.40;99.90
11003;DHT22;5554;55.796;13.090;2022-10-16T08:07:52;13.30;99.90
11003;DHT22;5554;55.796;13.090;2022-10-16T08:10:20;13.30;99.90
11003;DHT22;5554;55.796;13.090;2022-10-16T08:12:47;13.40;99.90
11003;DHT22;5554;55.796;13.090;2022-10-16T08:15:14;13.40;99.90
11003;DHT22;5554;55.796;13.090;2022-10-16T08:17:40;13.40;99.90
11003;DHT22;5554;55.796;13.090;2022-10-16T08:20:09;13.40;99.90
11003;DHT22;5554;55.796;13.090;2022-10-16T08:22:36;13.50;99.90
11003;DHT22;5554;55.796;13.090;2022-10-16T08:25:03;13.60;99.90
11003;DHT22;5554;55.796;13.090;2022-10-16T08:27:30;13.70;99.90
11003;DHT22;5554;55.796;13.090;2022-10-16T08:29:57;13.80;99.90
11003;DHT22;5554;55.796;13.090;2022-10-16T08:32:24;14.00;99.90
11003;DHT22;5554;55.796;13.090;2022-10-16T08:34:50;14.00;99.90
11003;DHT22;5554;55.796;13.090;2022-10-16T08:37:18;13.80;99.90
11003;DHT22;5554;55.796;13.090;2022-10-16T08:39:45;13.80;99.90
11003;DHT22;5554;55.796;13.090;2022-10-16T08:42:15;13.70;99.90
11003;DHT22;5554;55.796;13.090;2022-10-16T08:47:33;13.80;99.90
11003;DHT22;5554;55.796;13.090;2022-10-16T08:50:02;13.70;99.90
11003;DHT22;5554;55.796;13.090;2022-10-16T08:52:38;13.70;99.90
11003;DHT22;5554;55.796;13.090;2022-10-16T08:55:05;13.70;99.90
11003;DHT22;5554;55.796;13.090;2022-10-16T08:57:32;13.80;99.90
11003;DHT22;5554;55.796;13.090;2022-10-16T08:59:59;13.80;99.90
11003;DHT22;5554;55.796;13.090;2022-10-16T09:02:28;13.70;99.90
11003;DHT22;5554;55.796;13.090;2022-10-16T09:04:58;13.80;99.90
11003;DHT22;5554;55.796;13.090;2022-10-16T09:07:29;13.70;99.90
11003;DHT22;5554;55.796;13.090;2022-10-16T09:10:04;13.70;99.90
11003;DHT22;5554;55.796;13.090;2022-10-16T09:12:37;13.70;99.90
11003;DHT22;5554;55.796;13.090;2022-10-16T09:15:10;13.70;99.90
11003;DHT22;5554;55.796;13.090;2022-10-16T09:17:42;13.80;99.90
11003;DHT22;5554;55.796;13.090;2022-10-16T09:20:18;13.80;99.90
11003;DHT22;5554;55.796;13.090;2022-10-16T09:22:45;13.90;99.90
11003;DHT22;5554;55.796;13.090;2022-10-16T09:25:14;14.00;99.90
11003;DHT22;5554;55.796;13.090;2022-10-16T09:27:41;14.00;99.90
11003;DHT22;5554;55.796;13.090;2022-10-16T09:30:12;14.00;99.90
11003;DHT22;5554;55.796;13.090;2022-10-16T09:32:39;14.00;99.90
11003;DHT22;5554;55.796;13.090;2022-10-16T09:35:09;13.90;99.90
11003;DHT22;5554;55.796;13.090;2022-10-16T09:37:37;13.90;99.90
11003;DHT22;5554;55.796;13.090;2022-10-16T09:40:04;13.90;99.90
11003;DHT22;5554;55.796;13.090;2022-10-16T09:42:33;14.00;99.90
11003;DHT22;5554;55.796;13.090;2022-10-16T09:45:00;14.10;99.90
11003;DHT22;5554;55.796;13.090;2022-10-16T09:47:28;14.10;99.90
11003;DHT22;5554;55.796;13.090;2022-10-16T09:49:55;14.20;99.90
11003;DHT22;5554;55.796;13.090;2022-10-16T09:52:25;14.20;99.90
11003;DHT22;5554;55.796;13.090;2022-10-16T09:54:52;14.20;99.90
11003;DHT22;5554;55.796;13.090;2022-10-16T09:57:19;14.30;99.90
11003;DHT22;5554;55.796;13.090;2022-10-16T09:59:48;14.30;99.90
11003;DHT22;5554;55.796;13.090;2022-10-16T10:02:16;14.40;99.90
11003;DHT22;5554;55.796;13.090;2022-10-16T10:04:44;14.30;99.90
11003;DHT22;5554;55.796;13.090;2022-10-16T10:07:17;14.30;99.90
11003;DHT22;5554;55.796;13.090;2022-10-16T10:09:44;14.40;99.90
11003;DHT22;5554;55.796;13.090;2022-10-16T10:12:16;14.40;99.90
11003;DHT22;5554;55.796;13.090;2022-10-16T10:14:44;14.50;99.90
11003;DHT22;5554;55.796;13.090;2022-10-16T10:17:15;14.70;99.90
11003;DHT22;5554;55.796;13.090;2022-10-16T10:19:44;14.80;99.90
11003;DHT22;5554;55.796;13.090;2022-10-16T10:22:22;14.80;99.90
11003;DHT22;5554;55.796;13.090;2022-10-16T10:24:56;15.00;99.90
11003;DHT22;5554;55.796;13.090;2022-10-16T10:27:24;14.90;99.90
11003;DHT22;5554;55.796;13.090;2022-10-16T10:29:56;15.00;99.90
11003;DHT22;5554;55.796;13.090;2022-10-16T10:32:27;15.20;99.90
11003;DHT22;5554;55.796;13.090;2022-10-16T10:35:02;15.20;99.90
11003;DHT22;5554;55.796;13.090;2022-10-16T10:37:49;15.40;99.90
11003;DHT22;5554;55.796;13.090;2022-10-16T10:40:22;15.50;99.90
11003;DHT22;5554;55.796;13.090;2022-10-16T10:42:51;15.90;99.90
11003;DHT22;5554;55.796;13.090;2022-10-16T10:45:24;16.50;99.90
11003;DHT22;5554;55.796;13.090;2022-10-16T10:47:59;16.60;99.90
11003;DHT22;5554;55.796;13.090;2022-10-16T10:50:30;17.10;99.90
11003;DHT22;5554;55.796;13.090;2022-10-16T10:53:02;16.50;99.90
11003;DHT22;5554;55.796;13.090;2022-10-16T10:55:34;16.50;99.90
11003;DHT22;5554;55.796;13.090;2022-10-16T10:58:08;16.70;99.90
11003;DHT22;5554;55.796;13.090;2022-10-16T11:00:40;16.90;99.90
11003;DHT22;5554;55.796;13.090;2022-10-16T11:03:13;17.00;99.90
11003;DHT22;5554;55.796;13.090;2022-10-16T11:05:50;17.30;99.90
11003;DHT22;5554;55.796;13.090;2022-10-16T11:08:19;17.80;99.90
11003;DHT22;5554;55.796;13.090;2022-10-16T11:10:54;17.70;99.90
11003;DHT22;5554;55.796;13.090;2022-10-16T11:13:27;17.80;99.90
11003;DHT22;5554;55.796;13.090;2022-10-16T11:15:56;17.40;99.90
11003;DHT22;5554;55.796;13.090;2022-10-16T11:18:27;18.00;99.90
11003;DHT22;5554;55.796;13.090;2022-10-16T11:20:57;18.20;99.90
11003;DHT22;5554;55.796;13.090;2022-10-16T11:23:26;17.80;99.90
11003;DHT22;5554;55.796;13.090;2022-10-16T11:25:55;18.10;99.90
11003;DHT22;5554;55.796;13.090;2022-10-16T11:28:23;18.30;99.90
11003;DHT22;5554;55.796;13.090;2022-10-16T11:30:55;18.50;99.90
11003;DHT22;5554;55.796;13.090;2022-10-16T11:33:27;17.60;99.90
11003;DHT22;5554;55.796;13.090;2022-10-16T11:35:59;17.10;99.90
11003;DHT22;5554;55.796;13.090;2022-10-16T11:38:27;17.10;99.90
11003;DHT22;5554;55.796;13.090;2022-10-16T11:40:57;17.10;99.90
11003;DHT22;5554;55.796;13.090;2022-10-16T11:43:25;17.30;99.90
11003;DHT22;5554;55.796;13.090;2022-10-16T11:45:54;17.60;99.90
11003;DHT22;5554;55.796;13.090;2022-10-16T11:48:23;17.60;99.90
11003;DHT22;5554;55.796;13.090;2022-10-16T11:50:53;17.80;99.90
11003;DHT22;5554;55.796;13.090;2022-10-16T11:53:23;17.60;99.90
11003;DHT22;5554;55.796;13.090;2022-10-16T11:56:03;17.70;99.90
11003;DHT22;5554;55.796;13.090;2022-10-16T11:58:31;17.70;99.90
11003;DHT22;5554;55.796;13.090;2022-10-16T12:01:02;17.50;99.90
11003;DHT22;5554;55.796;13.090;2022-10-16T12:03:36;17.80;99.90
11003;DHT22;5554;55.796;13.090;2022-10-16T12:06:13;17.50;99.90
11003;DHT22;5554;55.796;13.090;2022-10-16T12:08:52;17.40;99.90
11003;DHT22;5554;55.796;13.090;2022-10-16T12:11:24;16.80;99.90
11003;DHT22;5554;55.796;13.090;2022-10-16T12:14:03;16.90;99.90
11003;DHT22;5554;55.796;13.090;2022-10-16T12:16:30;16.40;99.90
11003;DHT22;5554;55.796;13.090;2022-10-16T12:19:09;17.20;99.90
11003;DHT22;5554;55.796;13.090;2022-10-16T12:21:54;17.40;99.90
11003;DHT22;5554;55.796;13.090;2022-10-16T12:24:26;17.40;99.90
11003;DHT22;5554;55.796;13.090;2022-10-16T12:26:54;17.70;99.90
11003;DHT22;5554;55.796;13.090;2022-10-16T12:29:26;17.40;99.90
11003;DHT22;5554;55.796;13.090;2022-10-16T12:31:58;17.80;99.90
11003;DHT22;5554;55.796;13.090;2022-10-16T12:34:26;17.60;99.90
11003;DHT22;5554;55.796;13.090;2022-10-16T12:37:07;17.50;99.90
11003;DHT22;5554;55.796;13.090;2022-10-16T12:39:34;17.10;99.90
11003;DHT22;5554;55.796;13.090;2022-10-16T12:42:04;17.80;99.90
11003;DHT22;5554;55.796;13.090;2022-10-16T12:44:34;18.10;99.90
11003;DHT22;5554;55.796;13.090;2022-10-16T12:47:01;18.40;99.90
11003;DHT22;5554;55.796;13.090;2022-10-16T12:49:34;18.40;99.90
11003;DHT22;5554;55.796;13.090;2022-10-16T12:52:03;17.40;99.90
11003;DHT22;5554;55.796;13.090;2022-10-16T12:54:31;17.50;99.90
11003;DHT22;5554;55.796;13.090;2022-10-16T12:57:08;17.10;99.90
11003;DHT22;5554;55.796;13.090;2022-10-16T12:59:38;16.90;99.90
11003;DHT22;5554;55.796;13.090;2022-10-16T13:02:18;16.90;99.90
11003;DHT22;5554;55.796;13.090;2022-10-16T13:04:55;16.90;99.90
11003;DHT22;5554;55.796;13.090;2022-10-16T13:10:13;16.60;99.90
11003;DHT22;5554;55.796;13.090;2022-10-16T13:12:49;16.60;99.90
11003;DHT22;5554;55.796;13.090;2022-10-16T13:15:21;16.20;99.90
11003;DHT22;5554;55.796;13.090;2022-10-16T13:17:52;16.30;99.90
11003;DHT22;5554;55.796;13.090;2022-10-16T13:20:21;16.40;99.90
11003;DHT22;5554;55.796;13.090;2022-10-16T13:22:51;16.50;99.90
11003;DHT22;5554;55.796;13.090;2022-10-16T13:25:24;16.50;99.90
11003;DHT22;5554;55.796;13.090;2022-10-16T13:27:55;16.10;99.90
11003;DHT22;5554;55.796;13.090;2022-10-16T13:30:23;16.30;99.90
11003;DHT22;5554;55.796;13.090;2022-10-16T13:33:01;16.30;99.90
11003;DHT22;5554;55.796;13.090;2022-10-16T13:35:28;16.40;99.90
11003;DHT22;5554;55.796;13.090;2022-10-16T13:40:54;16.10;99.90
11003;DHT22;5554;55.796;13.090;2022-10-16T13:43:22;16.20;99.90
11003;DHT22;5554;55.796;13.090;2022-10-16T13:45:53;16.10;99.90
11003;DHT22;5554;55.796;13.090;2022-10-16T13:48:20;16.00;99.90
11003;DHT22;5554;55.796;13.090;2022-10-16T13:50:57;16.10;99.90
11003;DHT22;5554;55.796;13.090;2022-10-16T13:53:24;16.10;99.90
11003;DHT22;5554;55.796;13.090;2022-10-16T13:55:51;16.00;99.90
11003;DHT22;5554;55.796;13.090;2022-10-16T13:58:19;15.90;99.90
11003;DHT22;5554;55.796;13.090;2022-10-16T14:00:53;15.90;99.90
11003;DHT22;5554;55.796;13.090;2022-10-16T14:03:20;16.00;99.90
11003;DHT22;5554;55.796;13.090;2022-10-16T14:05:47;15.80;99.90
11003;DHT22;5554;55.796;13.090;2022-10-16T14:08:14;15.60;99.90
11003;DHT22;5554;55.796;13.090;2022-10-16T14:10:41;15.40;99.90
11003;DHT22;5554;55.796;13.090;2022-10-16T14:13:12;15.30;99.90
11003;DHT22;5554;55.796;13.090;2022-10-16T14:15:45;14.90;99.90
11003;DHT22;5554;55.796;13.090;2022-10-16T14:18:14;14.60;99.90
11003;DHT22;5554;55.796;13.090;2022-10-16T14:20:42;14.30;99.90
11003;DHT22;5554;55.796;13.090;2022-10-16T14:23:18;13.80;99.90
11003;DHT22;5554;55.796;13.090;2022-10-16T14:25:45;13.80;99.90
11003;DHT22;5554;55.796;13.090;2022-10-16T14:28:14;14.00;99.90
11003;DHT22;5554;55.796;13.090;2022-10-16T14:30:50;14.00;99.90
11003;DHT22;5554;55.796;13.090;2022-10-16T14:33:21;13.80;99.90
11003;DHT22;5554;55.796;13.090;2022-10-16T14:35:57;13.60;99.90
11003;DHT22;5554;55.796;13.090;2022-10-16T14:38:25;13.60;99.90
11003;DHT22;5554;55.796;13.090;2022-10-16T14:40:51;13.60;99.90
11003;DHT22;5554;55.796;13.090;2022-10-16T14:43:20;13.50;99.90
11003;DHT22;5554;55.796;13.090;2022-10-16T14:45:52;13.60;99.90
11003;DHT22;5554;55.796;13.090;2022-10-16T14:48:19;13.60;99.90
11003;DHT22;5554;55.796;13.090;2022-10-16T14:50:46;13.70;99.90
11003;DHT22;5554;55.796;13.090;2022-10-16T14:53:13;13.50;99.90
11003;DHT22;5554;55.796;13.090;2022-10-16T14:55:41;13.50;99.90
11003;DHT22;5554;55.796;13.090;2022-10-16T14:58:10;13.40;99.90
11003;DHT22;5554;55.796;13.090;2022-10-16T15:00:40;13.40;99.90
11003;DHT22;5554;55.796;13.090;2022-10-16T15:03:11;13.40;99.90
11003;DHT22;5554;55.796;13.090;2022-10-16T15:05:39;13.40;99.90
11003;DHT22;5554;55.796;13.090;2022-10-16T15:08:05;13.40;99.90
11003;DHT22;5554;55.796;13.090;2022-10-16T15:10:33;13.40;99.90
11003;DHT22;5554;55.796;13.090;2022-10-16T15:13:02;13.50;99.90
11003;DHT22;5554;55.796;13.090;2022-10-16T15:15:33;13.50;99.90
11003;DHT22;5554;55.796;13.090;2022-10-16T15:18:00;13.40;99.90
11003;DHT22;5554;55.796;13.090;2022-10-16T15:20:30;13.40;99.90
11003;DHT22;5554;55.796;13.090;2022-10-16T15:22:59;13.40;99.90
11003;DHT22;5554;55.796;13.090;2022-10-16T15:25:29;13.40;99.90
11003;DHT22;5554;55.796;13.090;2022-10-16T15:27:56;13.50;99.90
11003;DHT22;5554;55.796;13.090;2022-10-16T15:30:23;13.50;99.90
11003;DHT22;5554;55.796;13.090;2022-10-16T15:32:49;13.60;99.90
11003;DHT22;5554;55.796;13.090;2022-10-16T15:35:16;13.60;99.90
11003;DHT22;5554;55.796;13.090;2022-10-16T15:37:45;13.50;99.90
11003;DHT22;5554;55.796;13.090;2022-10-16T15:40:12;13.50;99.90
11003;DHT22;5554;55.796;13.090;2022-10-16T15:42:39;13.40;99.90
11003;DHT22;5554;55.796;13.090;2022-10-16T15:45:06;13.30;99.90
11003;DHT22;5554;55.796;13.090;2022-10-16T15:47:32;13.30;99.90